Airfield :







YOU CAN JOIN US ON...

 
LOGIN :

Register | Disclaimer

   EN    FR    IT 

 









Legend :    VFR   Marginal VFR   IFR   Intensive IFR   Very Intensive IFR
Visi :
Ceiling :
>= 8 km
>= 3000ft
5 to 8 km
1000 to 3000 ft
1500m to 5 km
500 to 1000 ft
800 to 1500m
200 to 500 ft
< 800m
< 200 ft
Symbols :   Thunderstorms  Fog  Heavy snow  Heavy precipitations  Wind > 20 kt






- Airport Elevation : 626 ft


KCAR - Caribou Municipal

CURRENT METAR :
  • 100930Z AUTO 21006KT 10SM BKN010 OVC033 08/07 A2941 RMK AO2 T00780067

EXPIRED METARs :
  • 100903Z AUTO 19007KT 9SM FEW009 SCT036 OVC045 08/07 A2940 RMK AO2 T00780067
  • 100854Z AUTO 21005KT 10SM SCT010 SCT036 OVC047 08/07 A2940 RMK AO2 SLP963 60009 T00780067 58013
  • 100754Z AUTO 21006KT 10SM BKN011 08/07 A2941 RMK AO2 RAE28 CIG 009V015 SLP967 P0003 T00830072
  • 100654Z AUTO 20007KT 6SM -RA BR BKN012 BKN023 OVC032 08/08 A2943 RMK AO2 SLP973 P0006 T00830078

TAF KCAR
Valid from the 10 at 06:00 until the 11 at 06:00 UTC


100545Z 1006/1106 18011KT 3SM -RA BR OVC008 WS020/22050KT
TEMPO 1006/1010 6SM -RA BR FEW008 OVC013
FM101000 19011KT 3SM BR OVC005 WS020/24040KT
FM101300 22011KT P6SM BKN008 WS020/23045KT
FM101600 22013G23KT P6SM BKN015 WS020/23045KT
FM102000 24013G23KT P6SM BKN035 WS020/24040KT
FM110400 29012G22KT P6SM BKN035



MET'MAP, your aeronautical weather chart ! - Copyright ORBIFLY December 2007 - Disclaimer

ORBIFLY MET'MAP TEAM :

Programming & Development : Alexandra Zaïnal
Concept & original design : Baudouin d'Aumeries
Assistance for programming : Marc-Olivier Méhu
Technical & hardware support : Manuel Goepfert

Contact : metmap@orbifly.com




SOURCES & CREDITS :

   NOAA